Time;durP1;ratioP1;P1;durP2;ratioP2;P2;SDS_P1;SDS_P2;PMS_P1;PMS_P2;Temp;Humidity;BMP_temperature;BMP_pressure;BME280_temperature;BME280_humidity;BME280_pressure;Samples;Min_cycle;Max_cycle;Signal;HPM_P1;HPM_P2
2023/02/17 00:00:33;;;;;;;;;;;3.90;77.00;;;;;;5003705;28;88951;-38
2023/02/17 00:02:59;;;;;;;;;;;3.90;76.90;;;;;;5003155;28;89980;-38
2023/02/17 00:05:25;;;;;;;;;;;3.90;76.90;;;;;;5006741;28;86318;-38
2023/02/17 00:07:50;;;;;;;;;;;3.90;76.90;;;;;;5003006;28;88357;-38
2023/02/17 00:10:16;;;;;;;;;;;3.90;76.90;;;;;;5003449;28;87068;-38
2023/02/17 00:12:42;;;;;;;;;;;3.90;76.90;;;;;;5002892;28;89044;-38
2023/02/17 00:15:07;;;;;;;;;;;3.90;76.90;;;;;;5002960;28;89144;-39
2023/02/17 00:17:33;;;;;;;;;;;3.80;76.90;;;;;;5003768;28;87180;-38
2023/02/17 00:19:59;;;;;;;;;;;3.90;76.90;;;;;;5003440;28;88539;-38
2023/02/17 00:22:24;;;;;;;;;;;3.80;76.90;;;;;;5002824;28;88423;-38
2023/02/17 00:24:50;;;;;;;;;;;3.80;76.80;;;;;;5003243;28;87135;-38
2023/02/17 00:27:15;;;;;;;;;;;3.80;76.80;;;;;;5005704;28;87886;-38
2023/02/17 00:29:41;;;;;;;;;;;3.80;76.80;;;;;;5003686;28;86929;-38
2023/02/17 00:32:08;;;;;;;;;;;3.80;76.90;;;;;;5003051;28;87989;-38
2023/02/17 00:34:34;;;;;;;;;;;3.80;76.80;;;;;;5002860;28;88554;-38
2023/02/17 00:36:59;;;;;;;;;;;3.80;76.90;;;;;;5002310;28;88105;-38
2023/02/17 00:39:25;;;;;;;;;;;3.80;76.90;;;;;;5002807;28;89783;-38
2023/02/17 00:41:50;;;;;;;;;;;3.80;77.10;;;;;;5002607;28;88209;-38
2023/02/17 00:44:17;;;;;;;;;;;3.80;76.90;;;;;;5002901;28;87068;-38
2023/02/17 00:46:43;;;;;;;;;;;3.80;76.80;;;;;;5005433;28;88674;-38
2023/02/17 00:49:19;;;;;;;;;;;3.80;76.80;;;;;;5003003;28;87148;-38
2023/02/17 00:51:45;;;;;;;;;;;3.80;76.80;;;;;;5002722;28;88090;-38
2023/02/17 00:54:11;;;;;;;;;;;3.80;76.80;;;;;;5002725;28;88242;-38
2023/02/17 00:56:36;;;;;;;;;;;3.80;76.80;;;;;;5002927;28;87160;-38
2023/02/17 00:59:02;;;;;;;;;;;3.80;76.70;;;;;;5002625;28;89111;-38
2023/02/17 01:01:28;;;;;;;;;;;3.70;76.70;;;;;;5001663;28;89070;-38
2023/02/17 01:03:53;;;;;;;;;;;3.70;76.70;;;;;;5002585;28;87136;-38
2023/02/17 01:06:23;;;;;;;;;;;3.70;76.70;;;;;;5002316;28;88682;-38
2023/02/17 01:08:49;;;;;;;;;;;3.70;76.70;;;;;;5005219;28;89199;-38
2023/02/17 01:11:18;;;;;;;;;;;3.70;76.70;;;;;;5002488;28;87922;-38
2023/02/17 01:13:43;;;;;;;;;;;3.70;76.60;;;;;;5002306;28;87593;-38
2023/02/17 01:16:16;;;;;;;;;;;3.70;76.60;;;;;;5002568;28;87146;-38
2023/02/17 01:18:42;;;;;;;;;;;3.70;76.60;;;;;;5002804;28;90566;-39
2023/02/17 01:21:14;;;;;;;;;;;3.70;76.60;;;;;;5001937;28;89632;-38
2023/02/17 01:23:40;;;;;;;;;;;3.70;76.60;;;;;;5002570;28;87011;-38
2023/02/17 01:26:05;;;;;;;;;;;3.70;76.60;;;;;;5001782;28;88802;-38
2023/02/17 01:28:31;;;;;;;;;;;3.70;76.60;;;;;;5001922;28;89670;-38
2023/02/17 01:30:56;;;;;;;;;;;3.70;76.50;;;;;;5005335;28;87660;-38
2023/02/17 01:33:22;;;;;;;;;;;3.70;76.50;;;;;;5002000;28;88150;-38
2023/02/17 01:35:47;;;;;;;;;;;3.70;76.50;;;;;;5001809;28;87186;-38
2023/02/17 01:38:13;;;;;;;;;;;3.70;76.50;;;;;;5002245;28;88926;-38
2023/02/17 01:40:45;;;;;;;;;;;3.70;76.50;;;;;;5001768;28;89531;-38
2023/02/17 01:43:14;;;;;;;;;;;3.70;76.50;;;;;;5002730;28;86249;-38
2023/02/17 01:45:52;;;;;;;;;;;3.70;76.50;;;;;;5004512;28;88368;-38
2023/02/17 01:48:19;;;;;;;;;;;3.70;76.50;;;;;;5004981;28;89479;-38
2023/02/17 01:50:47;;;;;;;;;;;3.60;76.50;;;;;;5004959;28;88080;-38
2023/02/17 01:53:16;;;;;;;;;;;3.60;76.50;;;;;;5007969;28;89621;-38
2023/02/17 01:55:42;;;;;;;;;;;3.60;76.50;;;;;;5005647;28;87151;-38
2023/02/17 01:58:08;;;;;;;;;;;3.60;76.50;;;;;;5005480;28;88901;-38
2023/02/17 02:00:35;;;;;;;;;;;3.60;76.50;;;;;;5005228;28;89362;-38
2023/02/17 02:03:03;;;;;;;;;;;3.60;76.50;;;;;;5005581;28;87082;-38
2023/02/17 02:05:28;;;;;;;;;;;3.60;76.50;;;;;;5004804;28;88687;-38
2023/02/17 02:07:54;;;;;;;;;;;3.60;76.50;;;;;;5005675;28;88725;-38
2023/02/17 02:10:19;;;;;;;;;;;3.60;76.50;;;;;;5005403;28;87303;-38
2023/02/17 02:12:45;;;;;;;;;;;3.60;76.50;;;;;;5005233;28;88664;-39
2023/02/17 02:15:15;;;;;;;;;;;3.60;76.50;;;;;;5007323;28;89019;-38
2023/02/17 02:17:59;;;;;;;;;;;3.50;76.40;;;;;;5005318;28;89560;-38
2023/02/17 02:20:28;;;;;;;;;;;3.50;76.40;;;;;;5005079;28;88020;-38
2023/02/17 02:23:12;;;;;;;;;;;3.50;76.40;;;;;;5005144;28;87085;-38
2023/02/17 02:25:37;;;;;;;;;;;3.50;76.40;;;;;;5005102;28;89030;-38
2023/02/17 02:28:03;;;;;;;;;;;3.50;76.40;;;;;;5004369;28;89549;-38
2023/02/17 02:30:28;;;;;;;;;;;3.50;76.40;;;;;;5005283;28;86967;-38
2023/02/17 02:33:01;;;;;;;;;;;3.50;76.40;;;;;;5005379;28;88663;-38
2023/02/17 02:35:29;;;;;;;;;;;3.50;76.40;;;;;;5004639;28;89176;-38
2023/02/17 02:37:59;;;;;;;;;;;3.40;76.40;;;;;;5007899;28;86949;-38
2023/02/17 02:40:27;;;;;;;;;;;3.40;76.40;;;;;;5003801;28;90318;-38
2023/02/17 02:42:53;;;;;;;;;;;3.50;76.40;;;;;;5004840;28;87116;-38
2023/02/17 02:45:19;;;;;;;;;;;3.50;76.40;;;;;;5004830;28;88666;-38
2023/02/17 02:47:47;;;;;;;;;;;3.40;76.40;;;;;;5004584;28;89577;-38
2023/02/17 02:50:14;;;;;;;;;;;3.40;76.40;;;;;;5004736;28;87110;-38
2023/02/17 02:52:49;;;;;;;;;;;3.40;76.40;;;;;;5004708;28;88851;-38
2023/02/17 02:55:18;;;;;;;;;;;3.40;76.40;;;;;;5003957;28;88027;-38
2023/02/17 02:58:05;;;;;;;;;;;3.40;76.40;;;;;;5008060;28;86371;-38
2023/02/17 03:00:44;;;;;;;;;;;3.40;76.30;;;;;;5004222;28;89422;-38
2023/02/17 03:03:20;;;;;;;;;;;3.40;76.20;;;;;;5004866;28;87037;-38
2023/02/17 03:05:54;;;;;;;;;;;3.30;76.30;;;;;;5003658;28;88546;-38
2023/02/17 03:08:25;;;;;;;;;;;3.30;76.30;;;;;;5004105;28;88429;-38
2023/02/17 03:10:51;;;;;;;;;;;3.30;76.30;;;;;;5004251;28;87131;-38
2023/02/17 03:13:17;;;;;;;;;;;3.30;76.30;;;;;;5004654;28;88941;-38
2023/02/17 03:15:43;;;;;;;;;;;3.30;76.30;;;;;;5003822;28;89625;-38
2023/02/17 03:18:09;;;;;;;;;;;3.30;76.30;;;;;;5004573;28;87113;-38
2023/02/17 03:20:36;;;;;;;;;;;3.30;76.30;;;;;;5006740;28;88712;-38
2023/02/17 03:23:02;;;;;;;;;;;3.30;76.30;;;;;;5004847;28;86570;-38
2023/02/17 03:25:28;;;;;;;;;;;3.30;76.30;;;;;;5004229;28;88171;-38
2023/02/17 03:27:53;;;;;;;;;;;3.30;76.30;;;;;;5004149;28;88258;-38
2023/02/17 03:30:19;;;;;;;;;;;3.30;76.30;;;;;;5003554;28;88052;-38
2023/02/17 03:32:45;;;;;;;;;;;3.30;76.30;;;;;;5003853;28;89675;-38
2023/02/17 03:35:11;;;;;;;;;;;3.30;76.30;;;;;;5003759;28;89212;-38
2023/02/17 03:37:37;;;;;;;;;;;3.20;76.30;;;;;;5003954;28;87102;-38
2023/02/17 03:40:03;;;;;;;;;;;3.20;76.30;;;;;;5003753;28;87996;-38
2023/02/17 03:42:29;;;;;;;;;;;3.20;76.30;;;;;;5006524;28;88351;-38
2023/02/17 03:44:54;;;;;;;;;;;3.20;76.30;;;;;;5003990;28;88847;-38
2023/02/17 03:47:20;;;;;;;;;;;3.30;76.30;;;;;;5004303;28;86575;-38
2023/02/17 03:49:45;;;;;;;;;;;3.20;76.30;;;;;;5003626;28;87178;-38
2023/02/17 03:52:11;;;;;;;;;;;3.20;76.30;;;;;;5003953;28;87439;-38
2023/02/17 03:54:36;;;;;;;;;;;3.20;76.30;;;;;;5002412;28;90165;-38
2023/02/17 03:57:02;;;;;;;;;;;3.20;76.30;;;;;;5003595;28;87131;-38
2023/02/17 03:59:27;;;;;;;;;;;3.20;76.30;;;;;;5003667;28;88623;-37
2023/02/17 04:01:53;;;;;;;;;;;3.20;76.30;;;;;;5003299;28;89373;-38
2023/02/17 04:04:18;;;;;;;;;;;3.20;76.30;;;;;;5006462;28;87224;-38
2023/02/17 04:06:44;;;;;;;;;;;3.20;76.30;;;;;;5002384;28;89408;-38
2023/02/17 04:09:09;;;;;;;;;;;3.10;76.20;;;;;;5002824;28;87163;-38
2023/02/17 04:11:35;;;;;;;;;;;3.10;76.20;;;;;;5003827;28;88672;-38
2023/02/17 04:14:00;;;;;;;;;;;3.10;76.20;;;;;;5003176;28;89530;-38
2023/02/17 04:16:26;;;;;;;;;;;3.10;76.20;;;;;;5003283;28;87104;-38
2023/02/17 04:18:51;;;;;;;;;;;3.10;76.20;;;;;;5002744;28;88854;-37
2023/02/17 04:21:17;;;;;;;;;;;3.10;76.20;;;;;;5002906;28;89684;-38
2023/02/17 04:23:42;;;;;;;;;;;3.10;76.20;;;;;;5003476;28;88171;-38
2023/02/17 04:26:08;;;;;;;;;;;3.10;76.20;;;;;;5005482;28;89090;-38
2023/02/17 04:28:34;;;;;;;;;;;3.10;76.20;;;;;;5003393;28;86995;-38
2023/02/17 04:30:59;;;;;;;;;;;3.10;76.20;;;;;;5002993;28;89019;-38
2023/02/17 04:33:25;;;;;;;;;;;3.00;76.30;;;;;;5002836;28;88008;-38
2023/02/17 04:35:50;;;;;;;;;;;3.10;76.30;;;;;;5003474;28;87335;-38
2023/02/17 04:38:16;;;;;;;;;;;3.00;76.30;;;;;;5002983;28;88027;-38
2023/02/17 04:40:41;;;;;;;;;;;3.00;76.40;;;;;;5002543;28;89668;-38
2023/02/17 04:43:07;;;;;;;;;;;3.00;76.40;;;;;;5002132;28;88022;-38
2023/02/17 04:45:34;;;;;;;;;;;3.00;76.40;;;;;;5005459;28;89689;-38
2023/02/17 04:47:59;;;;;;;;;;;3.00;76.40;;;;;;5002720;28;87096;-38
2023/02/17 04:50:25;;;;;;;;;;;3.00;76.40;;;;;;5002914;28;88675;-38
2023/02/17 04:52:50;;;;;;;;;;;3.00;76.50;;;;;;5002512;28;89348;-38
2023/02/17 04:55:16;;;;;;;;;;;3.00;76.40;;;;;;5002838;28;87130;-38
2023/02/17 04:57:41;;;;;;;;;;;3.00;76.40;;;;;;5002798;28;88842;-38
2023/02/17 05:00:07;;;;;;;;;;;3.00;76.40;;;;;;5002890;28;88664;-37
2023/02/17 05:02:33;;;;;;;;;;;3.00;76.30;;;;;;5002883;28;87080;-38
2023/02/17 05:04:58;;;;;;;;;;;2.90;76.30;;;;;;5002767;28;87362;-38
2023/02/17 05:07:24;;;;;;;;;;;2.90;76.40;;;;;;5004418;28;88138;-38
2023/02/17 05:09:49;;;;;;;;;;;2.90;76.40;;;;;;5002542;28;89747;-38
2023/02/17 05:12:15;;;;;;;;;;;2.90;76.30;;;;;;5002499;28;87903;-38
2023/02/17 05:14:40;;;;;;;;;;;2.90;76.30;;;;;;5002831;28;87217;-38
2023/02/17 05:17:06;;;;;;;;;;;2.90;76.30;;;;;;5002754;28;88527;-38
2023/02/17 05:19:31;;;;;;;;;;;2.90;76.40;;;;;;5001646;28;88406;-38
2023/02/17 05:21:57;;;;;;;;;;;2.90;76.40;;;;;;5002588;28;87286;-38
2023/02/17 05:24:22;;;;;;;;;;;2.80;76.40;;;;;;5002968;28;89054;-38
2023/02/17 05:26:48;;;;;;;;;;;2.90;76.50;;;;;;5002118;28;89175;-38
2023/02/17 05:29:13;;;;;;;;;;;2.90;76.50;;;;;;5005415;28;87130;-37
2023/02/17 05:31:39;;;;;;;;;;;2.80;76.40;;;;;;5001370;28;88875;-38
2023/02/17 05:34:04;;;;;;;;;;;2.80;76.40;;;;;;5002099;28;87085;-38
2023/02/17 05:36:30;;;;;;;;;;;2.80;76.50;;;;;;5002158;28;88365;-38
2023/02/17 05:38:55;;;;;;;;;;;2.80;76.40;;;;;;5002196;28;88259;-38
2023/02/17 05:41:21;;;;;;;;;;;2.80;76.40;;;;;;5002382;28;86936;-38
2023/02/17 05:43:46;;;;;;;;;;;2.80;77.00;;;;;;5002158;28;88887;-38
2023/02/17 05:46:12;;;;;;;;;;;2.80;76.50;;;;;;5001826;28;89461;-38
2023/02/17 05:48:37;;;;;;;;;;;2.80;76.50;;;;;;5002461;28;86397;-38
2023/02/17 05:51:03;;;;;;;;;;;2.80;77.10;;;;;;5004535;28;88339;-38
2023/02/17 05:53:29;;;;;;;;;;;2.80;76.50;;;;;;5002061;28;87077;-38
2023/02/17 05:55:54;;;;;;;;;;;2.80;76.50;;;;;;5001385;28;89016;-38
2023/02/17 05:58:20;;;;;;;;;;;2.80;76.60;;;;;;5001552;28;89312;-38
2023/02/17 06:00:45;;;;;;;;;;;2.80;76.50;;;;;;5002251;28;86990;-38
2023/02/17 06:03:11;;;;;;;;;;;2.70;76.50;;;;;;5002291;28;87762;-38
2023/02/17 06:05:37;;;;;;;;;;;2.70;76.50;;;;;;5000977;28;89398;-38
2023/02/17 06:08:02;;;;;;;;;;;2.70;76.60;;;;;;5001999;28;86897;-38
2023/02/17 06:10:29;;;;;;;;;;;2.70;76.60;;;;;;5002135;28;87065;-38
2023/02/17 06:12:55;;;;;;;;;;;2.70;76.60;;;;;;5004880;28;88214;-38
2023/02/17 06:15:20;;;;;;;;;;;2.70;76.60;;;;;;5001935;28;88006;-38
2023/02/17 06:17:46;;;;;;;;;;;2.70;76.60;;;;;;5001651;28;88133;-38
2023/02/17 06:20:12;;;;;;;;;;;2.70;76.60;;;;;;5000787;28;88143;-38
2023/02/17 06:22:37;;;;;;;;;;;2.70;76.60;;;;;;5001750;28;90042;-38
2023/02/17 06:25:03;;;;;;;;;;;2.70;76.60;;;;;;5001368;28;89622;-38
2023/02/17 06:27:28;;;;;;;;;;;2.70;76.60;;;;;;5001832;28;87209;-38
2023/02/17 06:29:54;;;;;;;;;;;2.70;76.60;;;;;;5001811;28;87848;-38
2023/02/17 06:32:19;;;;;;;;;;;2.70;76.70;;;;;;5004353;28;87991;-38
2023/02/17 06:34:45;;;;;;;;;;;2.60;76.60;;;;;;5007599;28;87114;-38
2023/02/17 06:37:10;;;;;;;;;;;2.60;76.70;;;;;;5005071;28;88719;-38
2023/02/17 06:39:36;;;;;;;;;;;2.70;76.60;;;;;;5004947;28;87068;-38
2023/02/17 06:42:01;;;;;;;;;;;2.60;76.60;;;;;;5005051;28;87854;-39
2023/02/17 06:44:27;;;;;;;;;;;2.60;76.60;;;;;;5003824;28;90328;-38
2023/02/17 06:46:52;;;;;;;;;;;2.60;76.60;;;;;;5004751;28;87141;-38
2023/02/17 06:49:18;;;;;;;;;;;2.60;76.50;;;;;;5004551;28;88690;-38
2023/02/17 06:51:43;;;;;;;;;;;2.60;76.60;;;;;;5004296;28;88644;-38
2023/02/17 06:54:09;;;;;;;;;;;2.60;76.50;;;;;;5007487;28;87110;-38
2023/02/17 06:56:35;;;;;;;;;;;2.70;76.50;;;;;;5004591;28;88183;-38
2023/02/17 06:59:01;;;;;;;;;;;2.60;76.40;;;;;;5004732;28;87110;-38
2023/02/17 07:01:26;;;;;;;;;;;2.60;76.50;;;;;;5004995;28;88961;-38
2023/02/17 07:03:52;;;;;;;;;;;2.60;76.50;;;;;;5004090;28;89523;-38
2023/02/17 07:06:17;;;;;;;;;;;2.60;76.50;;;;;;5003849;28;87228;-38
2023/02/17 07:08:43;;;;;;;;;;;2.60;76.50;;;;;;5004216;28;87935;-37
2023/02/17 07:11:10;;;;;;;;;;;2.60;76.50;;;;;;5003900;28;89763;-38
2023/02/17 07:13:35;;;;;;;;;;;2.60;76.50;;;;;;5004402;28;87148;-38
2023/02/17 07:16:01;;;;;;;;;;;2.60;76.50;;;;;;5006955;28;88748;-38
2023/02/17 07:18:26;;;;;;;;;;;2.60;76.60;;;;;;5004162;28;87145;-38
2023/02/17 07:20:52;;;;;;;;;;;2.60;76.50;;;;;;5004463;28;87248;-38
2023/02/17 07:23:17;;;;;;;;;;;2.60;76.50;;;;;;5004046;28;87968;-38
2023/02/17 07:25:43;;;;;;;;;;;2.60;76.50;;;;;;5004499;28;86295;-38
2023/02/17 07:28:08;;;;;;;;;;;2.60;76.50;;;;;;5004116;28;88235;-38
2023/02/17 07:30:38;;;;;;;;;;;2.60;76.50;;;;;;5003668;28;89409;-38
2023/02/17 07:33:04;;;;;;;;;;;2.60;76.40;;;;;;5003880;28;88084;-38
2023/02/17 07:35:29;;;;;;;;;;;2.60;76.50;;;;;;5003874;28;89706;-38
2023/02/17 07:37:58;;;;;;;;;;;2.60;76.40;;;;;;5006454;28;89879;-38
2023/02/17 07:40:24;;;;;;;;;;;2.60;76.40;;;;;;5003933;28;87733;-38
2023/02/17 07:42:50;;;;;;;;;;;2.60;76.40;;;;;;5002590;28;90090;-38
2023/02/17 07:45:15;;;;;;;;;;;2.60;76.30;;;;;;5004141;28;87035;-38
2023/02/17 07:47:41;;;;;;;;;;;2.60;76.40;;;;;;5003974;28;88614;-38
2023/02/17 07:50:06;;;;;;;;;;;2.60;76.40;;;;;;5003580;28;89031;-38
2023/02/17 07:52:32;;;;;;;;;;;2.60;76.40;;;;;;5003953;28;87072;-37
2023/02/17 07:54:57;;;;;;;;;;;2.60;76.40;;;;;;5003449;28;89081;-38
2023/02/17 07:57:23;;;;;;;;;;;2.60;76.40;;;;;;5002487;28;90433;-38
2023/02/17 07:59:48;;;;;;;;;;;2.60;76.30;;;;;;5006542;28;87084;-38
2023/02/17 08:02:14;;;;;;;;;;;2.60;76.40;;;;;;5003278;28;89551;-37
2023/02/17 08:04:39;;;;;;;;;;;2.60;76.40;;;;;;5003292;28;87021;-38
2023/02/17 08:07:05;;;;;;;;;;;2.70;76.40;;;;;;5003730;28;86997;-38
2023/02/17 08:15:00;;;;;;;;;;;2.60;76.40;;;;;;5004077;28;86625;-38
2023/02/17 08:17:27;;;;;;;;;;;2.60;76.50;;;;;;5002848;28;89562;-38
2023/02/17 08:19:52;;;;;;;;;;;2.70;76.60;;;;;;5003408;28;87089;-38
2023/02/17 08:22:18;;;;;;;;;;;2.60;76.50;;;;;;5005303;28;88689;-38
2023/02/17 08:24:44;;;;;;;;;;;2.60;76.50;;;;;;5003375;28;87068;-38
2023/02/17 08:27:09;;;;;;;;;;;2.60;76.40;;;;;;5003258;28;87763;-37
2023/02/17 08:29:34;;;;;;;;;;;2.60;76.40;;;;;;5003067;28;89524;-38
2023/02/17 08:32:00;;;;;;;;;;;2.70;76.50;;;;;;5002984;28;87018;-38
2023/02/17 08:34:27;;;;;;;;;;;2.70;76.50;;;;;;5003034;28;89080;-38
2023/02/17 08:36:52;;;;;;;;;;;2.70;76.40;;;;;;5002777;28;89413;-38
2023/02/17 08:39:18;;;;;;;;;;;2.70;76.50;;;;;;5003570;28;86424;-38
2023/02/17 08:41:43;;;;;;;;;;;2.70;76.50;;;;;;5002952;28;88093;-38
2023/02/17 08:44:11;;;;;;;;;;;2.70;76.50;;;;;;5005743;28;89558;-38
2023/02/17 08:46:36;;;;;;;;;;;2.70;76.50;;;;;;5002484;28;88846;-38
2023/02/17 08:49:02;;;;;;;;;;;2.70;76.50;;;;;;5002778;28;87932;-38
2023/02/17 08:51:28;;;;;;;;;;;2.70;76.60;;;;;;5003076;28;87120;-38
2023/02/17 08:53:55;;;;;;;;;;;2.70;76.60;;;;;;5002709;28;88801;-38
2023/02/17 08:56:24;;;;;;;;;;;2.70;76.60;;;;;;5002365;28;89359;-38
2023/02/17 08:58:50;;;;;;;;;;;2.70;76.70;;;;;;5002760;28;87120;-38
2023/02/17 09:01:17;;;;;;;;;;;2.70;76.50;;;;;;5002876;28;88848;-38
2023/02/17 09:03:43;;;;;;;;;;;2.70;76.50;;;;;;5005692;28;88738;-38
2023/02/17 09:06:09;;;;;;;;;;;2.70;76.50;;;;;;5002208;28;87900;-38
2023/02/17 09:08:35;;;;;;;;;;;2.70;76.60;;;;;;5002290;28;89253;-38
2023/02/17 09:11:01;;;;;;;;;;;2.70;76.60;;;;;;5001913;28;87883;-38
2023/02/17 09:13:26;;;;;;;;;;;2.70;76.60;;;;;;5002463;28;89708;-38
2023/02/17 09:15:52;;;;;;;;;;;2.70;76.60;;;;;;5002254;28;89272;-38
2023/02/17 09:18:21;;;;;;;;;;;2.70;76.70;;;;;;5002499;28;86955;-38
2023/02/17 09:20:47;;;;;;;;;;;2.70;76.70;;;;;;5002479;28;88622;-38
2023/02/17 09:23:13;;;;;;;;;;;2.70;76.70;;;;;;5002053;28;88359;-38
2023/02/17 09:25:38;;;;;;;;;;;2.70;76.70;;;;;;5005414;28;87353;-38
2023/02/17 09:28:04;;;;;;;;;;;2.70;76.70;;;;;;5002816;28;87448;-38
2023/02/17 09:30:30;;;;;;;;;;;2.70;76.80;;;;;;5002237;28;87004;-38
2023/02/17 09:32:56;;;;;;;;;;;2.70;76.90;;;;;;5002374;28;88592;-38
2023/02/17 09:35:21;;;;;;;;;;;2.70;76.90;;;;;;5001186;28;90472;-38
2023/02/17 09:37:47;;;;;;;;;;;2.70;76.90;;;;;;5002325;28;87132;-39
2023/02/17 09:40:17;;;;;;;;;;;2.70;76.80;;;;;;5002339;28;88600;-38
2023/02/17 09:42:42;;;;;;;;;;;2.70;76.80;;;;;;5002050;28;87138;-38
2023/02/17 09:45:10;;;;;;;;;;;2.80;76.80;;;;;;5002330;28;87133;-38
2023/02/17 09:48:02;;;;;;;;;;;2.80;76.90;;;;;;5004786;28;88613;-38
2023/02/17 09:50:30;;;;;;;;;;;2.80;76.90;;;;;;4999734;28;87032;-38
2023/02/17 09:52:58;;;;;;;;;;;2.80;76.90;;;;;;5002481;28;88790;-38
2023/02/17 09:55:26;;;;;;;;;;;2.80;76.80;;;;;;5001520;28;89563;-38
2023/02/17 09:57:52;;;;;;;;;;;2.80;76.80;;;;;;5002137;28;87021;-38
2023/02/17 10:00:23;;;;;;;;;;;2.80;76.80;;;;;;5001475;28;88634;-38
2023/02/17 10:02:54;;;;;;;;;;;2.80;77.40;;;;;;5001843;28;88040;-38
2023/02/17 10:05:22;;;;;;;;;;;2.80;76.80;;;;;;5001876;28;87012;-38
2023/02/17 10:07:54;;;;;;;;;;;2.80;76.80;;;;;;5005598;28;87825;-38
2023/02/17 10:10:22;;;;;;;;;;;2.90;76.80;;;;;;5007807;28;89298;-38
2023/02/17 10:12:50;;;;;;;;;;;2.80;76.70;;;;;;5005475;28;87443;-38
2023/02/17 10:15:19;;;;;;;;;;;2.90;76.80;;;;;;5005039;28;88254;-38
2023/02/17 10:17:50;;;;;;;;;;;2.90;76.70;;;;;;5005745;28;86451;-38
2023/02/17 10:20:18;;;;;;;;;;;2.90;76.70;;;;;;5005655;28;86958;-39
2023/02/17 10:22:46;;;;;;;;;;;2.90;76.60;;;;;;5005161;28;87840;-38
2023/02/17 10:25:21;;;;;;;;;;;2.90;76.70;;;;;;5004624;28;88140;-38
2023/02/17 10:27:54;;;;;;;;;;;2.90;76.70;;;;;;5005209;28;89563;-38
2023/02/17 10:30:29;;;;;;;;;;;2.90;76.70;;;;;;5004752;28;89460;-39
2023/02/17 10:32:57;;;;;;;;;;;2.90;76.70;;;;;;5007867;28;87547;-38
2023/02/17 10:35:28;;;;;;;;;;;3.00;76.70;;;;;;5004921;28;87434;-38
2023/02/17 10:38:26;;;;;;;;;;;3.00;76.80;;;;;;5004935;28;87569;-38
2023/02/17 10:40:53;;;;;;;;;;;3.00;76.90;;;;;;4981588;28;88756;-38
2023/02/17 10:43:21;;;;;;;;;;;3.00;76.90;;;;;;5005080;28;88456;-38
2023/02/17 10:45:48;;;;;;;;;;;3.00;76.90;;;;;;5004947;28;87678;-38
2023/02/17 10:48:15;;;;;;;;;;;3.00;76.90;;;;;;5005023;28;88970;-38
2023/02/17 10:50:41;;;;;;;;;;;3.10;76.90;;;;;;5003679;28;90217;-38
2023/02/17 10:53:14;;;;;;;;;;;3.10;77.10;;;;;;5004853;28;87123;-38
2023/02/17 10:56:02;;;;;;;;;;;3.10;77.00;;;;;;5007285;28;87379;-38
2023/02/17 10:58:28;;;;;;;;;;;3.10;77.10;;;;;;4998348;28;87097;-38
2023/02/17 11:00:55;;;;;;;;;;;3.10;77.00;;;;;;5004662;28;88637;-38
2023/02/17 11:03:22;;;;;;;;;;;3.20;77.10;;;;;;5004473;28;88083;-38
2023/02/17 11:06:11;;;;;;;;;;;3.20;77.20;;;;;;5003906;28;87126;-38
2023/02/17 11:08:43;;;;;;;;;;;3.20;77.30;;;;;;4998918;28;89083;-39
2023/02/17 11:11:22;;;;;;;;;;;3.20;77.40;;;;;;5004086;28;89558;-38
2023/02/17 11:13:50;;;;;;;;;;;3.20;77.50;;;;;;5004604;28;87085;-38
2023/02/17 11:16:25;;;;;;;;;;;3.30;77.50;;;;;;5006475;28;87811;-38
2023/02/17 11:18:51;;;;;;;;;;;3.30;77.40;;;;;;5004407;28;87200;-38
2023/02/17 11:21:16;;;;;;;;;;;3.30;77.30;;;;;;5004106;28;88964;-38
2023/02/17 11:23:46;;;;;;;;;;;3.30;77.20;;;;;;5004099;28;87722;-38
2023/02/17 11:26:16;;;;;;;;;;;3.30;77.30;;;;;;5004266;28;87052;-38
2023/02/17 11:28:42;;;;;;;;;;;3.30;77.20;;;;;;5004245;28;88879;-38
2023/02/17 11:31:20;;;;;;;;;;;3.30;77.30;;;;;;5003745;28;89330;-38
2023/02/17 11:33:46;;;;;;;;;;;3.40;77.40;;;;;;5004633;28;86369;-38
2023/02/17 11:36:20;;;;;;;;;;;3.40;77.40;;;;;;5004175;28;88187;-38
2023/02/17 11:38:46;;;;;;;;;;;3.40;77.30;;;;;;5006705;28;89617;-38
2023/02/17 11:41:12;;;;;;;;;;;3.40;77.40;;;;;;5003539;28;89036;-38
2023/02/17 11:43:38;;;;;;;;;;;3.40;77.40;;;;;;5003919;28;88061;-38
2023/02/17 11:46:10;;;;;;;;;;;3.50;77.40;;;;;;5003840;28;87138;-38
2023/02/17 11:48:43;;;;;;;;;;;3.50;77.40;;;;;;5003972;28;89134;-38
2023/02/17 11:51:20;;;;;;;;;;;3.50;77.40;;;;;;5003853;28;87227;-39
2023/02/17 11:53:58;;;;;;;;;;;3.50;77.50;;;;;;5003979;28;87107;-38
2023/02/17 11:56:40;;;;;;;;;;;3.50;77.40;;;;;;5003521;28;88974;-38
2023/02/17 11:59:24;;;;;;;;;;;3.60;77.50;;;;;;5004054;28;87285;-38
2023/02/17 12:02:09;;;;;;;;;;;3.60;77.60;;;;;;5006893;28;87217;-39
2023/02/17 12:04:44;;;;;;;;;;;3.60;77.70;;;;;;5003406;28;89566;-38
2023/02/17 12:07:09;;;;;;;;;;;3.70;77.80;;;;;;5002706;28;88014;-38
2023/02/17 12:09:42;;;;;;;;;;;3.70;77.70;;;;;;5003522;28;89666;-38
2023/02/17 12:12:26;;;;;;;;;;;3.70;77.90;;;;;;5003213;28;90016;-38
2023/02/17 12:15:01;;;;;;;;;;;3.70;77.90;;;;;;5003485;28;87222;-39
2023/02/17 12:17:46;;;;;;;;;;;3.70;78.00;;;;;;5003711;28;86975;-38
2023/02/17 12:20:50;;;;;;;;;;;3.80;78.00;;;;;;5002834;28;88026;-38
2023/02/17 12:23:34;;;;;;;;;;;3.80;77.80;;;;;;4961795;28;87233;-38
2023/02/17 12:26:06;;;;;;;;;;;3.80;78.00;;;;;;4964668;28;86538;-38
2023/02/17 12:28:31;;;;;;;;;;;3.80;78.10;;;;;;4986800;28;86987;-39
2023/02/17 12:31:03;;;;;;;;;;;3.90;78.10;;;;;;5003052;28;88395;-38
2023/02/17 12:33:35;;;;;;;;;;;3.90;78.30;;;;;;5002104;28;90355;-39
2023/02/17 12:36:02;;;;;;;;;;;3.90;78.00;;;;;;5003176;28;87119;-38
2023/02/17 12:38:31;;;;;;;;;;;3.90;78.00;;;;;;5003070;28;88735;-38
2023/02/17 12:41:02;;;;;;;;;;;3.90;77.90;;;;;;5002725;28;88786;-38
2023/02/17 12:43:34;;;;;;;;;;;4.00;78.10;;;;;;5003271;28;86931;-38
2023/02/17 12:46:03;;;;;;;;;;;4.00;78.00;;;;;;5003031;28;88776;-38
2023/02/17 12:48:32;;;;;;;;;;;4.00;77.90;;;;;;5005485;28;89716;-38
2023/02/17 12:51:01;;;;;;;;;;;4.00;77.90;;;;;;5003098;28;87414;-38
2023/02/17 12:53:39;;;;;;;;;;;4.10;78.10;;;;;;5002620;28;88009;-38
2023/02/17 12:56:14;;;;;;;;;;;4.10;78.20;;;;;;5002657;28;87154;-38
2023/02/17 12:58:41;;;;;;;;;;;4.10;78.00;;;;;;5002139;28;88474;-39
2023/02/17 13:01:09;;;;;;;;;;;4.10;78.20;;;;;;5002295;28;88807;-38
2023/02/17 13:03:35;;;;;;;;;;;4.20;78.10;;;;;;5002504;28;87634;-38
2023/02/17 13:06:01;;;;;;;;;;;4.20;78.20;;;;;;5002764;28;87598;-38
2023/02/17 13:08:44;;;;;;;;;;;4.20;78.30;;;;;;5002431;28;89479;-39
2023/02/17 13:11:11;;;;;;;;;;;4.20;78.40;;;;;;5005265;28;87019;-38
2023/02/17 13:13:37;;;;;;;;;;;4.30;78.50;;;;;;5002142;28;90054;-38
2023/02/17 13:16:05;;;;;;;;;;;4.30;78.50;;;;;;5002652;28;86509;-39
2023/02/17 13:18:32;;;;;;;;;;;4.30;78.60;;;;;;5002573;28;88160;-39
2023/02/17 13:21:16;;;;;;;;;;;4.30;78.60;;;;;;5002134;28;88478;-38
2023/02/17 13:23:44;;;;;;;;;;;4.40;78.70;;;;;;5001698;28;88092;-38
2023/02/17 13:26:20;;;;;;;;;;;4.40;78.50;;;;;;5002458;28;88156;-39
2023/02/17 13:28:46;;;;;;;;;;;4.40;78.40;;;;;;5001815;28;89385;-38
2023/02/17 13:31:12;;;;;;;;;;;4.40;78.60;;;;;;5004910;28;87089;-38
2023/02/17 13:33:42;;;;;;;;;;;4.40;78.70;;;;;;5002120;28;89283;-38
2023/02/17 13:36:12;;;;;;;;;;;4.50;78.70;;;;;;5002483;28;87306;-38
2023/02/17 13:38:37;;;;;;;;;;;4.50;78.70;;;;;;5002598;28;87016;-39
2023/02/17 13:41:05;;;;;;;;;;;4.50;78.90;;;;;;5003745;28;88938;-38
2023/02/17 13:43:38;;;;;;;;;;;4.60;78.80;;;;;;5005871;28;87082;-38
2023/02/17 13:46:04;;;;;;;;;;;4.60;78.50;;;;;;5005911;28;88715;-38
2023/02/17 13:48:33;;;;;;;;;;;4.60;78.60;;;;;;5004712;28;90504;-38
2023/02/17 13:51:00;;;;;;;;;;;4.60;78.50;;;;;;5005571;28;87662;-38
2023/02/17 13:53:25;;;;;;;;;;;4.70;78.70;;;;;;5008288;28;88706;-38
2023/02/17 13:55:56;;;;;;;;;;;4.70;78.50;;;;;;5005225;28;87198;-39
2023/02/17 13:58:22;;;;;;;;;;;4.70;78.80;;;;;;5005679;28;88744;-39
2023/02/17 14:00:48;;;;;;;;;;;4.70;78.60;;;;;;5005019;28;90284;-38
2023/02/17 14:03:34;;;;;;;;;;;4.80;78.60;;;;;;5005504;28;87197;-38
2023/02/17 14:06:00;;;;;;;;;;;4.80;78.60;;;;;;5005338;28;89308;-39
2023/02/17 14:08:34;;;;;;;;;;;4.80;78.80;;;;;;5005125;28;90071;-39
2023/02/17 14:11:14;;;;;;;;;;;4.80;78.90;;;;;;5005305;28;87073;-39
2023/02/17 14:13:44;;;;;;;;;;;4.90;78.60;;;;;;5004768;28;89029;-39
2023/02/17 14:16:28;;;;;;;;;;;4.90;78.60;;;;;;5008066;28;89169;-38
2023/02/17 14:19:05;;;;;;;;;;;4.90;78.80;;;;;;5005579;28;87403;-39
2023/02/17 14:21:31;;;;;;;;;;;5.00;78.90;;;;;;5004880;28;89329;-39
2023/02/17 14:23:58;;;;;;;;;;;5.00;78.70;;;;;;5005227;28;87165;-38
2023/02/17 14:26:42;;;;;;;;;;;5.00;78.80;;;;;;5005312;28;88877;-39
2023/02/17 14:29:09;;;;;;;;;;;5.00;78.70;;;;;;5004843;28;88012;-38
2023/02/17 14:31:38;;;;;;;;;;;5.10;78.70;;;;;;5005380;28;86375;-38
2023/02/17 14:34:04;;;;;;;;;;;5.10;78.60;;;;;;5005210;28;88042;-38
2023/02/17 14:36:32;;;;;;;;;;;5.10;78.80;;;;;;5004780;28;88609;-39
2023/02/17 14:38:58;;;;;;;;;;;5.20;78.70;;;;;;5007510;28;87791;-38
2023/02/17 14:41:23;;;;;;;;;;;5.20;78.60;;;;;;5004531;28;89496;-38